sensor_id;sensor_type;location;lat;lon;timestamp;P1;durP1;ratioP1;P2;durP2;ratioP2
55672;SDS011;41554;45.366;20.400;2022-09-09T00:00:14;14.15;;;7.95;;
55672;SDS011;41554;45.366;20.400;2022-09-09T00:02:41;9.10;;;7.45;;
55672;SDS011;41554;45.366;20.400;2022-09-09T00:15:13;13.40;;;8.45;;
55672;SDS011;41554;45.366;20.400;2022-09-09T00:17:48;16.33;;;8.98;;
55672;SDS011;41554;45.366;20.400;2022-09-09T00:20:19;9.27;;;6.75;;
55672;SDS011;41554;45.366;20.400;2022-09-09T00:22:50;10.45;;;8.55;;
55672;SDS011;41554;45.366;20.400;2022-09-09T00:25:22;18.98;;;8.50;;
55672;SDS011;41554;45.366;20.400;2022-09-09T00:27:49;12.23;;;8.02;;
55672;SDS011;41554;45.366;20.400;2022-09-09T00:30:20;11.93;;;7.68;;
55672;SDS011;41554;45.366;20.400;2022-09-09T00:32:55;11.00;;;8.60;;
55672;SDS011;41554;45.366;20.400;2022-09-09T00:35:25;10.73;;;8.88;;
55672;SDS011;41554;45.366;20.400;2022-09-09T00:37:54;16.67;;;8.98;;
55672;SDS011;41554;45.366;20.400;2022-09-09T00:48:25;11.85;;;9.07;;
55672;SDS011;41554;45.366;20.400;2022-09-09T00:50:56;19.30;;;9.25;;
55672;SDS011;41554;45.366;20.400;2022-09-09T00:53:35;10.90;;;8.38;;
55672;SDS011;41554;45.366;20.400;2022-09-09T00:56:16;14.43;;;9.60;;
55672;SDS011;41554;45.366;20.400;2022-09-09T00:58:54;11.73;;;9.93;;
55672;SDS011;41554;45.366;20.400;2022-09-09T01:01:25;9.45;;;8.30;;
55672;SDS011;41554;45.366;20.400;2022-09-09T01:03:54;10.38;;;7.80;;
55672;SDS011;41554;45.366;20.400;2022-09-09T01:11:45;12.43;;;9.57;;
55672;SDS011;41554;45.366;20.400;2022-09-09T01:16:50;15.32;;;9.02;;
55672;SDS011;41554;45.366;20.400;2022-09-09T01:19:35;10.95;;;9.80;;
55672;SDS011;41554;45.366;20.400;2022-09-09T01:22:08;14.45;;;8.98;;
55672;SDS011;41554;45.366;20.400;2022-09-09T01:24:42;11.30;;;8.90;;
55672;SDS011;41554;45.366;20.400;2022-09-09T01:27:09;16.42;;;8.15;;
55672;SDS011;41554;45.366;20.400;2022-09-09T01:29:36;14.45;;;9.07;;
55672;SDS011;41554;45.366;20.400;2022-09-09T01:32:35;12.82;;;9.35;;
55672;SDS011;41554;45.366;20.400;2022-09-09T01:34:48;13.43;;;9.85;;
55672;SDS011;41554;45.366;20.400;2022-09-09T01:37:15;16.55;;;9.63;;
55672;SDS011;41554;45.366;20.400;2022-09-09T01:39:42;11.68;;;10.30;;
55672;SDS011;41554;45.366;20.400;2022-09-09T01:42:09;15.20;;;10.95;;
55672;SDS011;41554;45.366;20.400;2022-09-09T01:44:36;11.82;;;9.05;;
55672;SDS011;41554;45.366;20.400;2022-09-09T01:47:03;15.40;;;11.52;;
55672;SDS011;41554;45.366;20.400;2022-09-09T01:49:30;17.23;;;8.85;;
55672;SDS011;41554;45.366;20.400;2022-09-09T01:51:57;9.80;;;8.80;;
55672;SDS011;41554;45.366;20.400;2022-09-09T01:54:25;12.30;;;9.18;;
55672;SDS011;41554;45.366;20.400;2022-09-09T02:06:48;9.77;;;8.82;;
55672;SDS011;41554;45.366;20.400;2022-09-09T02:11:44;16.13;;;9.23;;
55672;SDS011;41554;45.366;20.400;2022-09-09T02:14:14;15.43;;;10.90;;
55672;SDS011;41554;45.366;20.400;2022-09-09T02:16:50;11.73;;;9.43;;
55672;SDS011;41554;45.366;20.400;2022-09-09T02:19:23;28.63;;;10.48;;
55672;SDS011;41554;45.366;20.400;2022-09-09T02:21:52;11.10;;;8.63;;
55672;SDS011;41554;45.366;20.400;2022-09-09T02:24:18;17.25;;;9.05;;
55672;SDS011;41554;45.366;20.400;2022-09-09T02:26:45;9.95;;;8.73;;
55672;SDS011;41554;45.366;20.400;2022-09-09T02:29:18;17.45;;;11.30;;
55672;SDS011;41554;45.366;20.400;2022-09-09T02:31:45;14.85;;;10.10;;
55672;SDS011;41554;45.366;20.400;2022-09-09T02:34:13;15.85;;;9.55;;
55672;SDS011;41554;45.366;20.400;2022-09-09T02:36:40;20.15;;;10.80;;
55672;SDS011;41554;45.366;20.400;2022-09-09T02:39:08;22.10;;;11.35;;
55672;SDS011;41554;45.366;20.400;2022-09-09T02:41:39;14.10;;;10.50;;
55672;SDS011;41554;45.366;20.400;2022-09-09T02:44:12;16.77;;;12.45;;
55672;SDS011;41554;45.366;20.400;2022-09-09T02:54:32;21.25;;;10.35;;
55672;SDS011;41554;45.366;20.400;2022-09-09T02:59:57;22.58;;;11.80;;
55672;SDS011;41554;45.366;20.400;2022-09-09T03:02:24;17.52;;;11.27;;
55672;SDS011;41554;45.366;20.400;2022-09-09T03:04:50;12.98;;;9.27;;
55672;SDS011;41554;45.366;20.400;2022-09-09T03:07:19;11.18;;;9.38;;
55672;SDS011;41554;45.366;20.400;2022-09-09T03:09:45;11.30;;;9.17;;
55672;SDS011;41554;45.366;20.400;2022-09-09T03:12:12;17.08;;;11.65;;
55672;SDS011;41554;45.366;20.400;2022-09-09T03:14:38;19.00;;;10.88;;
55672;SDS011;41554;45.366;20.400;2022-09-09T03:17:04;19.00;;;11.88;;
55672;SDS011;41554;45.366;20.400;2022-09-09T03:19:31;19.67;;;9.43;;
55672;SDS011;41554;45.366;20.400;2022-09-09T03:21:58;14.73;;;10.27;;
55672;SDS011;41554;45.366;20.400;2022-09-09T03:24:24;12.57;;;9.32;;
55672;SDS011;41554;45.366;20.400;2022-09-09T03:26:51;14.55;;;9.55;;
55672;SDS011;41554;45.366;20.400;2022-09-09T03:29:17;12.48;;;9.30;;
55672;SDS011;41554;45.366;20.400;2022-09-09T03:31:43;12.07;;;8.98;;
55672;SDS011;41554;45.366;20.400;2022-09-09T03:34:10;15.32;;;10.45;;
55672;SDS011;41554;45.366;20.400;2022-09-09T03:36:36;15.57;;;10.48;;
55672;SDS011;41554;45.366;20.400;2022-09-09T03:39:02;17.83;;;10.63;;
55672;SDS011;41554;45.366;20.400;2022-09-09T03:41:29;19.85;;;11.02;;
55672;SDS011;41554;45.366;20.400;2022-09-09T03:43:55;13.93;;;9.18;;
55672;SDS011;41554;45.366;20.400;2022-09-09T03:46:22;12.35;;;10.50;;
55672;SDS011;41554;45.366;20.400;2022-09-09T03:48:48;15.50;;;10.20;;
55672;SDS011;41554;45.366;20.400;2022-09-09T03:51:14;13.13;;;9.73;;
55672;SDS011;41554;45.366;20.400;2022-09-09T03:53:41;21.48;;;8.82;;
55672;SDS011;41554;45.366;20.400;2022-09-09T03:56:08;10.60;;;8.57;;
55672;SDS011;41554;45.366;20.400;2022-09-09T03:58:34;11.05;;;7.60;;
55672;SDS011;41554;45.366;20.400;2022-09-09T04:01:02;13.05;;;8.85;;
55672;SDS011;41554;45.366;20.400;2022-09-09T04:03:28;10.80;;;8.52;;
55672;SDS011;41554;45.366;20.400;2022-09-09T04:05:55;13.98;;;8.32;;
55672;SDS011;41554;45.366;20.400;2022-09-09T04:08:22;25.00;;;7.28;;
55672;SDS011;41554;45.366;20.400;2022-09-09T04:10:51;14.25;;;6.32;;
55672;SDS011;41554;45.366;20.400;2022-09-09T04:13:18;11.60;;;7.80;;
55672;SDS011;41554;45.366;20.400;2022-09-09T04:15:51;7.70;;;5.63;;
55672;SDS011;41554;45.366;20.400;2022-09-09T04:18:18;8.40;;;7.13;;
55672;SDS011;41554;45.366;20.400;2022-09-09T04:20:48;14.48;;;6.05;;
55672;SDS011;41554;45.366;20.400;2022-09-09T04:23:15;9.10;;;6.25;;
55672;SDS011;41554;45.366;20.400;2022-09-09T04:25:48;12.88;;;6.93;;
55672;SDS011;41554;45.366;20.400;2022-09-09T04:28:15;6.68;;;5.07;;
55672;SDS011;41554;45.366;20.400;2022-09-09T04:30:41;9.02;;;6.95;;
55672;SDS011;41554;45.366;20.400;2022-09-09T04:33:07;9.00;;;6.40;;
55672;SDS011;41554;45.366;20.400;2022-09-09T04:35:35;9.18;;;5.53;;
55672;SDS011;41554;45.366;20.400;2022-09-09T04:38:01;9.18;;;6.68;;
55672;SDS011;41554;45.366;20.400;2022-09-09T04:40:32;11.65;;;5.80;;
55672;SDS011;41554;45.366;20.400;2022-09-09T04:42:59;25.40;;;7.10;;
55672;SDS011;41554;45.366;20.400;2022-09-09T04:45:25;11.05;;;8.70;;
55672;SDS011;41554;45.366;20.400;2022-09-09T04:47:51;16.33;;;8.15;;
55672;SDS011;41554;45.366;20.400;2022-09-09T04:50:17;11.35;;;7.82;;
55672;SDS011;41554;45.366;20.400;2022-09-09T04:52:44;15.40;;;8.05;;
55672;SDS011;41554;45.366;20.400;2022-09-09T04:55:10;13.80;;;9.65;;
55672;SDS011;41554;45.366;20.400;2022-09-09T04:57:38;12.68;;;7.60;;
55672;SDS011;41554;45.366;20.400;2022-09-09T05:00:04;11.40;;;8.40;;
55672;SDS011;41554;45.366;20.400;2022-09-09T05:02:30;15.80;;;8.60;;
55672;SDS011;41554;45.366;20.400;2022-09-09T05:04:57;15.95;;;8.48;;
55672;SDS011;41554;45.366;20.400;2022-09-09T05:07:23;13.18;;;7.45;;
55672;SDS011;41554;45.366;20.400;2022-09-09T05:09:51;9.18;;;7.00;;
55672;SDS011;41554;45.366;20.400;2022-09-09T05:12:17;10.45;;;6.13;;
55672;SDS011;41554;45.366;20.400;2022-09-09T05:14:44;9.07;;;6.55;;
55672;SDS011;41554;45.366;20.400;2022-09-09T05:17:10;15.23;;;7.72;;
55672;SDS011;41554;45.366;20.400;2022-09-09T05:19:36;9.38;;;6.93;;
55672;SDS011;41554;45.366;20.400;2022-09-09T05:22:02;10.15;;;7.25;;
55672;SDS011;41554;45.366;20.400;2022-09-09T05:24:29;8.15;;;6.20;;
55672;SDS011;41554;45.366;20.400;2022-09-09T05:26:58;7.85;;;6.93;;
55672;SDS011;41554;45.366;20.400;2022-09-09T05:29:26;11.43;;;7.05;;
55672;SDS011;41554;45.366;20.400;2022-09-09T05:31:52;14.93;;;8.45;;
55672;SDS011;41554;45.366;20.400;2022-09-09T05:34:18;12.35;;;8.40;;
55672;SDS011;41554;45.366;20.400;2022-09-09T05:36:45;10.70;;;8.50;;
55672;SDS011;41554;45.366;20.400;2022-09-09T05:39:12;11.38;;;6.88;;
55672;SDS011;41554;45.366;20.400;2022-09-09T05:41:38;12.68;;;7.53;;
55672;SDS011;41554;45.366;20.400;2022-09-09T05:44:04;16.85;;;7.97;;
55672;SDS011;41554;45.366;20.400;2022-09-09T05:46:31;10.68;;;7.45;;
55672;SDS011;41554;45.366;20.400;2022-09-09T05:48:57;11.50;;;7.75;;
55672;SDS011;41554;45.366;20.400;2022-09-09T05:51:24;11.30;;;6.93;;
55672;SDS011;41554;45.366;20.400;2022-09-09T05:53:51;20.95;;;14.23;;
55672;SDS011;41554;45.366;20.400;2022-09-09T05:56:19;23.75;;;8.02;;
55672;SDS011;41554;45.366;20.400;2022-09-09T05:58:46;16.73;;;9.35;;
55672;SDS011;41554;45.366;20.400;2022-09-09T06:03:40;24.08;;;12.52;;
55672;SDS011;41554;45.366;20.400;2022-09-09T06:06:08;34.95;;;19.73;;
55672;SDS011;41554;45.366;20.400;2022-09-09T06:08:35;29.25;;;14.60;;
55672;SDS011;41554;45.366;20.400;2022-09-09T06:11:05;25.83;;;14.40;;
55672;SDS011;41554;45.366;20.400;2022-09-09T06:13:32;19.90;;;10.40;;
55672;SDS011;41554;45.366;20.400;2022-09-09T06:15:58;14.27;;;10.23;;
55672;SDS011;41554;45.366;20.400;2022-09-09T06:18:25;18.13;;;10.45;;
55672;SDS011;41554;45.366;20.400;2022-09-09T06:20:58;13.95;;;10.55;;
55672;SDS011;41554;45.366;20.400;2022-09-09T06:23:26;15.82;;;7.97;;
55672;SDS011;41554;45.366;20.400;2022-09-09T06:26:00;12.00;;;10.77;;
55672;SDS011;41554;45.366;20.400;2022-09-09T06:28:26;20.00;;;9.00;;
55672;SDS011;41554;45.366;20.400;2022-09-09T06:30:59;22.70;;;10.85;;
55672;SDS011;41554;45.366;20.400;2022-09-09T06:33:25;16.80;;;10.20;;
55672;SDS011;41554;45.366;20.400;2022-09-09T06:35:52;15.57;;;8.30;;
55672;SDS011;41554;45.366;20.400;2022-09-09T06:38:19;11.80;;;7.97;;
55672;SDS011;41554;45.366;20.400;2022-09-09T06:40:53;18.52;;;7.50;;
55672;SDS011;41554;45.366;20.400;2022-09-09T06:43:22;11.32;;;6.88;;
55672;SDS011;41554;45.366;20.400;2022-09-09T06:46:02;17.17;;;8.55;;
55672;SDS011;41554;45.366;20.400;2022-09-09T06:48:28;9.07;;;7.32;;
55672;SDS011;41554;45.366;20.400;2022-09-09T06:51:04;18.35;;;8.93;;
55672;SDS011;41554;45.366;20.400;2022-09-09T06:53:30;9.50;;;7.07;;
55672;SDS011;41554;45.366;20.400;2022-09-09T06:56:02;10.43;;;6.35;;
55672;SDS011;41554;45.366;20.400;2022-09-09T06:58:28;9.40;;;7.10;;
55672;SDS011;41554;45.366;20.400;2022-09-09T07:01:02;14.77;;;8.93;;
55672;SDS011;41554;45.366;20.400;2022-09-09T07:03:28;11.13;;;7.70;;
55672;SDS011;41554;45.366;20.400;2022-09-09T07:05:55;11.13;;;7.43;;
55672;SDS011;41554;45.366;20.400;2022-09-09T07:08:21;13.30;;;8.48;;
55672;SDS011;41554;45.366;20.400;2022-09-09T07:10:47;12.07;;;7.22;;
55672;SDS011;41554;45.366;20.400;2022-09-09T07:13:14;11.32;;;7.00;;
55672;SDS011;41554;45.366;20.400;2022-09-09T07:15:40;10.65;;;7.05;;
55672;SDS011;41554;45.366;20.400;2022-09-09T07:18:07;10.88;;;6.95;;
55672;SDS011;41554;45.366;20.400;2022-09-09T07:20:35;10.80;;;8.40;;
55672;SDS011;41554;45.366;20.400;2022-09-09T07:23:01;14.55;;;8.15;;
55672;SDS011;41554;45.366;20.400;2022-09-09T07:25:27;10.98;;;8.20;;
55672;SDS011;41554;45.366;20.400;2022-09-09T07:27:55;7.60;;;6.32;;
55672;SDS011;41554;45.366;20.400;2022-09-09T07:30:21;11.65;;;6.60;;
55672;SDS011;41554;45.366;20.400;2022-09-09T07:32:47;9.23;;;7.30;;
55672;SDS011;41554;45.366;20.400;2022-09-09T07:35:13;14.13;;;6.90;;
55672;SDS011;41554;45.366;20.400;2022-09-09T07:37:39;18.15;;;8.20;;
55672;SDS011;41554;45.366;20.400;2022-09-09T07:40:06;24.25;;;9.00;;
55672;SDS011;41554;45.366;20.400;2022-09-09T07:42:32;11.07;;;7.50;;
55672;SDS011;41554;45.366;20.400;2022-09-09T07:44:58;8.02;;;5.85;;
55672;SDS011;41554;45.366;20.400;2022-09-09T07:47:24;8.85;;;7.07;;
55672;SDS011;41554;45.366;20.400;2022-09-09T07:49:50;10.20;;;6.10;;
55672;SDS011;41554;45.366;20.400;2022-09-09T07:52:16;8.18;;;6.28;;
55672;SDS011;41554;45.366;20.400;2022-09-09T07:54:45;12.73;;;6.55;;
55672;SDS011;41554;45.366;20.400;2022-09-09T07:57:11;7.53;;;6.80;;
55672;SDS011;41554;45.366;20.400;2022-09-09T07:59:37;7.97;;;5.70;;
55672;SDS011;41554;45.366;20.400;2022-09-09T08:02:03;8.40;;;6.03;;
55672;SDS011;41554;45.366;20.400;2022-09-09T08:04:30;7.03;;;5.07;;
55672;SDS011;41554;45.366;20.400;2022-09-09T08:06:57;7.57;;;5.22;;
55672;SDS011;41554;45.366;20.400;2022-09-09T08:09:23;9.93;;;7.22;;
55672;SDS011;41554;45.366;20.400;2022-09-09T08:11:52;9.95;;;7.60;;
55672;SDS011;41554;45.366;20.400;2022-09-09T08:14:18;10.13;;;6.50;;
55672;SDS011;41554;45.366;20.400;2022-09-09T08:16:46;8.00;;;6.32;;
55672;SDS011;41554;45.366;20.400;2022-09-09T08:19:12;7.95;;;6.70;;
55672;SDS011;41554;45.366;20.400;2022-09-09T08:21:40;12.82;;;6.43;;
55672;SDS011;41554;45.366;20.400;2022-09-09T08:24:07;9.50;;;6.35;;
55672;SDS011;41554;45.366;20.400;2022-09-09T08:26:34;11.02;;;6.68;;
55672;SDS011;41554;45.366;20.400;2022-09-09T08:29:01;12.95;;;6.72;;
55672;SDS011;41554;45.366;20.400;2022-09-09T08:31:29;11.80;;;6.80;;
55672;SDS011;41554;45.366;20.400;2022-09-09T08:33:56;10.48;;;6.38;;
55672;SDS011;41554;45.366;20.400;2022-09-09T08:36:24;9.00;;;7.30;;
55672;SDS011;41554;45.366;20.400;2022-09-09T08:38:51;10.75;;;6.88;;
55672;SDS011;41554;45.366;20.400;2022-09-09T08:44:02;7.75;;;6.38;;
55672;SDS011;41554;45.366;20.400;2022-09-09T08:46:35;8.60;;;6.35;;
55672;SDS011;41554;45.366;20.400;2022-09-09T08:51:39;9.15;;;6.45;;
55672;SDS011;41554;45.366;20.400;2022-09-09T08:54:07;9.32;;;6.93;;
55672;SDS011;41554;45.366;20.400;2022-09-09T08:56:35;13.80;;;6.88;;
55672;SDS011;41554;45.366;20.400;2022-09-09T08:59:01;12.48;;;7.65;;
55672;SDS011;41554;45.366;20.400;2022-09-09T09:06:46;13.35;;;8.02;;
55672;SDS011;41554;45.366;20.400;2022-09-09T09:19:04;15.82;;;6.57;;
55672;SDS011;41554;45.366;20.400;2022-09-09T09:24:00;7.72;;;6.30;;
55672;SDS011;41554;45.366;20.400;2022-09-09T09:26:33;11.65;;;6.40;;
55672;SDS011;41554;45.366;20.400;2022-09-09T09:29:00;11.63;;;5.90;;
55672;SDS011;41554;45.366;20.400;2022-09-09T09:31:28;11.35;;;6.05;;
55672;SDS011;41554;45.366;20.400;2022-09-09T09:33:54;9.63;;;6.47;;
55672;SDS011;41554;45.366;20.400;2022-09-09T09:36:25;10.05;;;6.97;;
55672;SDS011;41554;45.366;20.400;2022-09-09T09:38:59;8.30;;;5.80;;
55672;SDS011;41554;45.366;20.400;2022-09-09T09:41:43;8.95;;;6.47;;
55672;SDS011;41554;45.366;20.400;2022-09-09T09:49:33;13.73;;;7.60;;
55672;SDS011;41554;45.366;20.400;2022-09-09T09:52:06;10.05;;;6.10;;
55672;SDS011;41554;45.366;20.400;2022-09-09T09:54:33;12.45;;;6.88;;
55672;SDS011;41554;45.366;20.400;2022-09-09T09:57:13;16.75;;;13.82;;
55672;SDS011;41554;45.366;20.400;2022-09-09T09:59:40;13.25;;;8.52;;
55672;SDS011;41554;45.366;20.400;2022-09-09T10:02:18;13.40;;;10.13;;
55672;SDS011;41554;45.366;20.400;2022-09-09T10:04:45;10.52;;;8.40;;
55672;SDS011;41554;45.366;20.400;2022-09-09T10:07:21;11.65;;;7.95;;
55672;SDS011;41554;45.366;20.400;2022-09-09T10:09:56;9.63;;;7.97;;
55672;SDS011;41554;45.366;20.400;2022-09-09T10:22:52;8.35;;;6.47;;
55672;SDS011;41554;45.366;20.400;2022-09-09T10:33:13;8.95;;;6.75;;
55672;SDS011;41554;45.366;20.400;2022-09-09T10:35:49;11.30;;;8.23;;
55672;SDS011;41554;45.366;20.400;2022-09-09T10:48:28;11.43;;;7.05;;
55672;SDS011;41554;45.366;20.400;2022-09-09T10:53:35;9.95;;;7.63;;
55672;SDS011;41554;45.366;20.400;2022-09-09T10:56:04;18.40;;;7.85;;
55672;SDS011;41554;45.366;20.400;2022-09-09T10:58:52;7.03;;;6.18;;
55672;SDS011;41554;45.366;20.400;2022-09-09T11:01:24;8.43;;;7.57;;
55672;SDS011;41554;45.366;20.400;2022-09-09T11:03:59;17.88;;;7.15;;
55672;SDS011;41554;45.366;20.400;2022-09-09T11:06:29;14.73;;;8.05;;
55672;SDS011;41554;45.366;20.400;2022-09-09T11:08:57;12.70;;;7.40;;
55672;SDS011;41554;45.366;20.400;2022-09-09T11:11:29;10.50;;;6.32;;
55672;SDS011;41554;45.366;20.400;2022-09-09T11:16:47;13.10;;;7.45;;
55672;SDS011;41554;45.366;20.400;2022-09-09T11:19:17;11.68;;;7.82;;
55672;SDS011;41554;45.366;20.400;2022-09-09T11:21:47;17.92;;;8.38;;
55672;SDS011;41554;45.366;20.400;2022-09-09T11:27:29;11.18;;;8.02;;
55672;SDS011;41554;45.366;20.400;2022-09-09T11:29:51;11.27;;;8.30;;
55672;SDS011;41554;45.366;20.400;2022-09-09T11:40:17;8.48;;;6.75;;
55672;SDS011;41554;45.366;20.400;2022-09-09T11:42:44;8.82;;;7.35;;
55672;SDS011;41554;45.366;20.400;2022-09-09T11:45:30;13.05;;;7.22;;
55672;SDS011;41554;45.366;20.400;2022-09-09T11:47:57;16.00;;;7.82;;
55672;SDS011;41554;45.366;20.400;2022-09-09T11:52:50;9.30;;;7.78;;
55672;SDS011;41554;45.366;20.400;2022-09-09T11:55:26;9.07;;;6.43;;
55672;SDS011;41554;45.366;20.400;2022-09-09T11:58:02;10.13;;;6.65;;
55672;SDS011;41554;45.366;20.400;2022-09-09T12:02:58;9.57;;;7.80;;
55672;SDS011;41554;45.366;20.400;2022-09-09T12:05:24;10.32;;;8.15;;
55672;SDS011;41554;45.366;20.400;2022-09-09T12:08:01;12.02;;;6.60;;
55672;SDS011;41554;45.366;20.400;2022-09-09T12:10:35;11.55;;;7.60;;
55672;SDS011;41554;45.366;20.400;2022-09-09T12:15:48;9.50;;;7.90;;
55672;SDS011;41554;45.366;20.400;2022-09-09T12:18:15;7.82;;;6.50;;
55672;SDS011;41554;45.366;20.400;2022-09-09T12:20:52;12.57;;;6.05;;
55672;SDS011;41554;45.366;20.400;2022-09-09T12:28:44;7.35;;;6.22;;
55672;SDS011;41554;45.366;20.400;2022-09-09T12:31:26;8.55;;;5.97;;
55672;SDS011;41554;45.366;20.400;2022-09-09T12:33:55;12.43;;;7.15;;
55672;SDS011;41554;45.366;20.400;2022-09-09T12:36:29;11.80;;;7.30;;
55672;SDS011;41554;45.366;20.400;2022-09-09T12:38:56;7.88;;;6.38;;
55672;SDS011;41554;45.366;20.400;2022-09-09T12:41:25;8.60;;;6.45;;
55672;SDS011;41554;45.366;20.400;2022-09-09T12:44:02;13.93;;;7.47;;
55672;SDS011;41554;45.366;20.400;2022-09-09T12:46:39;9.30;;;6.60;;
55672;SDS011;41554;45.366;20.400;2022-09-09T12:49:05;9.77;;;6.65;;
55672;SDS011;41554;45.366;20.400;2022-09-09T12:51:49;15.48;;;5.95;;
55672;SDS011;41554;45.366;20.400;2022-09-09T12:54:15;9.85;;;7.47;;
55672;SDS011;41554;45.366;20.400;2022-09-09T12:56:44;18.63;;;9.57;;
55672;SDS011;41554;45.366;20.400;2022-09-09T12:59:21;11.80;;;8.27;;
55672;SDS011;41554;45.366;20.400;2022-09-09T13:01:54;9.60;;;8.13;;
55672;SDS011;41554;45.366;20.400;2022-09-09T13:04:21;11.52;;;7.88;;
55672;SDS011;41554;45.366;20.400;2022-09-09T13:06:47;14.45;;;6.90;;
55672;SDS011;41554;45.366;20.400;2022-09-09T13:09:14;9.00;;;7.20;;
55672;SDS011;41554;45.366;20.400;2022-09-09T13:11:43;13.18;;;6.95;;
55672;SDS011;41554;45.366;20.400;2022-09-09T13:14:16;10.68;;;6.72;;
55672;SDS011;41554;45.366;20.400;2022-09-09T13:16:53;13.00;;;8.32;;
55672;SDS011;41554;45.366;20.400;2022-09-09T13:19:20;9.30;;;6.72;;
55672;SDS011;41554;45.366;20.400;2022-09-09T13:21:46;10.27;;;7.05;;
55672;SDS011;41554;45.366;20.400;2022-09-09T13:24:30;11.32;;;8.18;;
55672;SDS011;41554;45.366;20.400;2022-09-09T13:26:57;7.53;;;6.15;;
55672;SDS011;41554;45.366;20.400;2022-09-09T13:29:23;7.90;;;6.28;;
55672;SDS011;41554;45.366;20.400;2022-09-09T13:31:50;9.15;;;7.25;;
55672;SDS011;41554;45.366;20.400;2022-09-09T13:36:53;16.95;;;10.70;;
55672;SDS011;41554;45.366;20.400;2022-09-09T13:39:21;17.27;;;7.97;;
55672;SDS011;41554;45.366;20.400;2022-09-09T13:41:48;8.93;;;6.65;;
55672;SDS011;41554;45.366;20.400;2022-09-09T13:44:17;14.18;;;7.97;;
55672;SDS011;41554;45.366;20.400;2022-09-09T13:46:45;8.40;;;6.20;;
55672;SDS011;41554;45.366;20.400;2022-09-09T13:51:38;13.82;;;6.93;;
55672;SDS011;41554;45.366;20.400;2022-09-09T13:54:05;8.07;;;5.63;;
55672;SDS011;41554;45.366;20.400;2022-09-09T13:56:33;9.35;;;5.57;;
55672;SDS011;41554;45.366;20.400;2022-09-09T13:59:00;8.02;;;4.82;;
55672;SDS011;41554;45.366;20.400;2022-09-09T14:01:26;8.63;;;6.28;;
55672;SDS011;41554;45.366;20.400;2022-09-09T14:03:52;11.43;;;6.93;;
55672;SDS011;41554;45.366;20.400;2022-09-09T14:06:19;7.72;;;6.18;;
55672;SDS011;41554;45.366;20.400;2022-09-09T14:08:47;9.30;;;7.13;;
55672;SDS011;41554;45.366;20.400;2022-09-09T14:11:13;10.68;;;6.18;;
55672;SDS011;41554;45.366;20.400;2022-09-09T14:13:39;7.03;;;5.50;;
55672;SDS011;41554;45.366;20.400;2022-09-09T14:16:05;10.50;;;6.82;;
55672;SDS011;41554;45.366;20.400;2022-09-09T14:18:31;12.05;;;6.95;;
55672;SDS011;41554;45.366;20.400;2022-09-09T14:20:59;13.20;;;6.57;;
55672;SDS011;41554;45.366;20.400;2022-09-09T14:23:25;9.68;;;7.28;;
55672;SDS011;41554;45.366;20.400;2022-09-09T14:25:51;7.05;;;5.15;;
55672;SDS011;41554;45.366;20.400;2022-09-09T14:28:17;13.32;;;5.60;;
55672;SDS011;41554;45.366;20.400;2022-09-09T14:30:43;10.68;;;5.68;;
55672;SDS011;41554;45.366;20.400;2022-09-09T14:33:11;18.23;;;6.50;;
55672;SDS011;41554;45.366;20.400;2022-09-09T14:35:37;9.73;;;6.72;;
55672;SDS011;41554;45.366;20.400;2022-09-09T14:38:04;17.23;;;6.40;;
55672;SDS011;41554;45.366;20.400;2022-09-09T14:40:30;15.95;;;6.65;;
55672;SDS011;41554;45.366;20.400;2022-09-09T14:42:57;12.85;;;6.82;;
55672;SDS011;41554;45.366;20.400;2022-09-09T14:45:30;9.90;;;7.22;;
55672;SDS011;41554;45.366;20.400;2022-09-09T14:48:03;10.70;;;6.35;;
55672;SDS011;41554;45.366;20.400;2022-09-09T14:50:29;13.60;;;6.85;;
55672;SDS011;41554;45.366;20.400;2022-09-09T14:52:59;20.38;;;9.00;;
55672;SDS011;41554;45.366;20.400;2022-09-09T14:57:54;16.15;;;10.35;;
55672;SDS011;41554;45.366;20.400;2022-09-09T15:00:20;12.70;;;9.40;;
55672;SDS011;41554;45.366;20.400;2022-09-09T15:02:46;11.55;;;7.43;;
55672;SDS011;41554;45.366;20.400;2022-09-09T15:05:15;16.08;;;8.27;;
55672;SDS011;41554;45.366;20.400;2022-09-09T15:07:44;15.18;;;8.43;;
55672;SDS011;41554;45.366;20.400;2022-09-09T15:10:11;10.43;;;5.57;;
55672;SDS011;41554;45.366;20.400;2022-09-09T15:12:44;12.50;;;6.43;;
55672;SDS011;41554;45.366;20.400;2022-09-09T15:15:14;24.15;;;7.18;;
55672;SDS011;41554;45.366;20.400;2022-09-09T15:17:44;12.07;;;6.05;;
55672;SDS011;41554;45.366;20.400;2022-09-09T15:20:11;7.63;;;6.72;;
55672;SDS011;41554;45.366;20.400;2022-09-09T15:22:40;13.43;;;6.93;;
55672;SDS011;41554;45.366;20.400;2022-09-09T15:25:07;25.63;;;6.97;;
55672;SDS011;41554;45.366;20.400;2022-09-09T15:27:33;18.17;;;7.32;;
55672;SDS011;41554;45.366;20.400;2022-09-09T15:30:00;10.13;;;7.82;;
55672;SDS011;41554;45.366;20.400;2022-09-09T15:32:28;13.95;;;6.97;;
55672;SDS011;41554;45.366;20.400;2022-09-09T15:34:54;11.43;;;7.43;;
55672;SDS011;41554;45.366;20.400;2022-09-09T15:39:50;17.98;;;9.48;;
55672;SDS011;41554;45.366;20.400;2022-09-09T15:42:16;11.82;;;6.95;;
55672;SDS011;41554;45.366;20.400;2022-09-09T15:44:42;9.07;;;5.45;;
55672;SDS011;41554;45.366;20.400;2022-09-09T15:47:12;6.85;;;5.10;;
55672;SDS011;41554;45.366;20.400;2022-09-09T15:49:38;11.30;;;6.57;;
55672;SDS011;41554;45.366;20.400;2022-09-09T15:52:08;8.77;;;6.45;;
55672;SDS011;41554;45.366;20.400;2022-09-09T15:54:37;24.80;;;7.90;;
55672;SDS011;41554;45.366;20.400;2022-09-09T15:57:05;11.80;;;6.63;;
55672;SDS011;41554;45.366;20.400;2022-09-09T15:59:31;9.10;;;5.00;;
55672;SDS011;41554;45.366;20.400;2022-09-09T16:01:59;9.48;;;5.45;;
55672;SDS011;41554;45.366;20.400;2022-09-09T16:04:35;9.68;;;7.03;;
55672;SDS011;41554;45.366;20.400;2022-09-09T16:07:05;10.35;;;6.15;;
55672;SDS011;41554;45.366;20.400;2022-09-09T16:09:31;9.05;;;6.63;;
55672;SDS011;41554;45.366;20.400;2022-09-09T16:12:02;14.98;;;6.55;;
55672;SDS011;41554;45.366;20.400;2022-09-09T16:14:45;11.82;;;6.45;;
55672;SDS011;41554;45.366;20.400;2022-09-09T16:17:14;20.20;;;7.68;;
55672;SDS011;41554;45.366;20.400;2022-09-09T16:19:43;16.67;;;8.05;;
55672;SDS011;41554;45.366;20.400;2022-09-09T16:22:13;13.27;;;9.27;;
55672;SDS011;41554;45.366;20.400;2022-09-09T16:24:40;20.55;;;7.63;;
55672;SDS011;41554;45.366;20.400;2022-09-09T16:27:13;14.13;;;7.25;;
55672;SDS011;41554;45.366;20.400;2022-09-09T16:29:42;18.17;;;6.85;;
55672;SDS011;41554;45.366;20.400;2022-09-09T16:32:08;9.77;;;7.03;;
55672;SDS011;41554;45.366;20.400;2022-09-09T16:34:42;15.30;;;7.45;;
55672;SDS011;41554;45.366;20.400;2022-09-09T16:37:08;17.20;;;7.80;;
55672;SDS011;41554;45.366;20.400;2022-09-09T16:39:38;14.35;;;7.38;;
55672;SDS011;41554;45.366;20.400;2022-09-09T16:42:16;8.88;;;6.75;;
55672;SDS011;41554;45.366;20.400;2022-09-09T16:44:45;16.00;;;8.25;;
55672;SDS011;41554;45.366;20.400;2022-09-09T16:47:14;8.43;;;7.47;;
55672;SDS011;41554;45.366;20.400;2022-09-09T16:49:50;11.85;;;7.63;;
55672;SDS011;41554;45.366;20.400;2022-09-09T16:52:16;39.50;;;10.20;;
55672;SDS011;41554;45.366;20.400;2022-09-09T16:54:42;21.30;;;7.60;;
55672;SDS011;41554;45.366;20.400;2022-09-09T16:57:08;22.02;;;9.63;;
55672;SDS011;41554;45.366;20.400;2022-09-09T16:59:34;13.38;;;8.65;;